Time;durP1;ratioP1;P1;durP2;ratioP2;P2;SDS_P1;SDS_P2;PMS_P1;PMS_P2;Temp;Humidity;BMP_temperature;BMP_pressure;BME280_temperature;BME280_humidity;BME280_pressure;Samples;Min_cycle;Max_cycle;Signal;HPM_P1;HPM_P2
2021/10/03 00:00:17;;;;;;;5.90;5.30;;;;;;;16.47;67.18;99706.09;5058917;28;20403;-69
2021/10/03 00:02:43;;;;;;;6.20;5.60;;;;;;;16.78;67.43;99698.06;5059160;28;20470;-69
2021/10/03 00:05:11;;;;;;;6.43;5.80;;;;;;;16.42;67.12;99692.22;5059675;28;20375;-68
2021/10/03 00:07:40;;;;;;;7.97;5.43;;;;;;;16.56;67.13;99670.72;5059119;28;20412;-69
2021/10/03 00:10:05;;;;;;;6.57;5.97;;;;;;;16.75;66.37;99665.72;5058830;28;20412;-68
2021/10/03 00:12:30;;;;;;;6.10;5.60;;;;;;;16.92;65.77;99652.03;5059414;28;20441;-69
2021/10/03 00:14:56;;;;;;;5.63;5.23;;;;;;;17.01;65.68;99646.47;5058992;28;20188;-69
2021/10/03 00:17:21;;;;;;;5.87;5.20;;;;;;;16.95;65.79;99646.66;5058851;28;20181;-69
2021/10/03 00:19:47;;;;;;;6.63;5.90;;;;;;;17.05;65.35;99660.34;5059518;28;20181;-68
2021/10/03 00:22:12;;;;;;;7.53;5.77;;;;;;;16.70;66.10;99651.84;5058869;28;20185;-70
2021/10/03 00:24:37;;;;;;;6.27;5.67;;;;;;;17.02;65.63;99640.25;5041529;28;20213;-68
2021/10/03 00:27:03;;;;;;;6.43;5.87;;;;;;;17.05;65.06;99645.44;5059216;28;20197;-70
2021/10/03 00:29:29;;;;;;;6.47;5.77;;;;;;;17.19;65.32;99644.09;5058729;28;20180;-70
2021/10/03 00:31:54;;;;;;;6.70;5.50;;;;;;;17.30;64.71;99642.78;5058235;28;20201;-68
2021/10/03 00:34:20;;;;;;;6.00;5.43;;;;;;;17.26;64.72;99633.28;5058842;28;20848;-68
2021/10/03 00:36:45;;;;;;;6.13;5.63;;;;;;;17.43;63.95;99637.09;5058783;28;20181;-69
2021/10/03 00:39:12;;;;;;;8.53;5.50;;;;;;;17.60;63.11;99660.19;5058771;28;20193;-69
2021/10/03 00:41:38;;;;;;;6.50;5.73;;;;;;;17.76;62.84;99632.31;5041592;28;20179;-69
2021/10/03 00:44:03;;;;;;;6.80;6.20;;;;;;;17.70;62.90;99613.25;5041228;28;20416;-68
2021/10/03 00:46:28;;;;;;;6.53;5.70;;;;;;;17.90;62.50;99625.66;5058391;28;20546;-68
2021/10/03 00:48:54;;;;;;;6.23;5.73;;;;;;;18.03;61.87;99634.00;5041777;28;20173;-70
2021/10/03 00:51:19;;;;;;;5.97;5.30;;;;;;;17.92;62.14;99601.00;5040823;28;20231;-68
2021/10/03 00:53:45;;;;;;;5.80;5.17;;;;;;;18.23;61.20;99606.84;5058549;28;20204;-69
2021/10/03 00:56:15;;;;;;;6.30;5.70;;;;;;;18.21;61.24;99620.06;5059038;28;20199;-68
2021/10/03 00:58:40;;;;;;;6.10;5.50;;;;;;;18.49;60.39;99592.56;5058306;28;20411;-68
2021/10/03 01:01:06;;;;;;;7.70;5.90;;;;;;;18.35;60.51;99580.81;5040817;28;20446;-68
2021/10/03 01:03:31;;;;;;;6.50;6.00;;;;;;;18.54;60.13;99609.09;5058723;28;20200;-68
2021/10/03 01:05:56;;;;;;;6.37;5.77;;;;;;;18.45;60.42;99593.63;5058250;28;20174;-68
2021/10/03 01:08:22;;;;;;;7.03;6.20;;;;;;;18.56;60.17;99572.06;5058500;28;20184;-69
2021/10/03 01:10:47;;;;;;;6.57;5.70;;;;;;;18.51;60.18;99575.75;5040984;28;20170;-68
2021/10/03 01:13:13;;;;;;;7.53;5.80;;;;;;;18.47;60.43;99576.81;5058068;28;20229;-68
2021/10/03 01:15:40;;;;;;;7.27;5.73;;;;;;;18.60;60.18;99563.09;5058298;28;20192;-69
2021/10/03 01:18:07;;;;;;;6.20;5.70;;;;;;;18.67;59.73;99569.81;5058943;28;20546;-69
2021/10/03 01:20:33;;;;;;;6.47;5.37;;;;;;;18.82;59.73;99581.50;5058065;28;20421;-68
2021/10/03 01:23:05;;;;;;;6.20;5.60;;;;;;;18.59;60.27;99556.97;5040615;28;20420;-69
2021/10/03 01:25:33;;;;;;;6.90;6.17;;;;;;;18.79;59.86;99574.56;5058778;28;20835;-68
2021/10/03 01:27:58;;;;;;;5.83;5.23;;;;;;;18.76;60.17;99580.00;5058014;28;20511;-67
2021/10/03 01:30:24;;;;;;;5.97;5.47;;;;;;;18.69;60.16;99562.69;5040560;28;20503;-68
2021/10/03 01:32:50;;;;;;;5.60;5.10;;;;;;;18.85;59.67;99566.41;5058560;28;20188;-68
2021/10/03 01:35:15;;;;;;;6.00;5.50;;;;;;;18.75;59.99;99557.13;5057850;28;20415;-68
2021/10/03 01:37:40;;;;;;;8.70;6.23;;;;;;;18.85;59.90;99557.63;5057783;28;20169;-68
2021/10/03 01:40:08;;;;;;;6.50;5.90;;;;;;;18.86;60.11;99548.75;5058066;28;20165;-68
2021/10/03 01:42:33;;;;;;;5.57;5.07;;;;;;;18.69;60.76;99553.00;5057884;28;20165;-69
2021/10/03 01:44:59;;;;;;;5.50;5.03;;;;;;;18.82;60.39;99550.69;5060866;28;20427;-68
2021/10/03 01:47:24;;;;;;;5.80;5.30;;;;;;;19.00;59.99;99543.75;5062446;28;20531;-69
2021/10/03 01:49:50;;;;;;;6.57;5.50;;;;;;;18.78;60.28;99548.22;5061582;28;20215;-69
2021/10/03 01:52:15;;;;;;;6.13;5.37;;;;;;;18.72;60.77;99552.00;5061428;28;20235;-68
2021/10/03 01:54:41;;;;;;;6.40;5.80;;;;;;;18.97;59.58;99559.75;5062052;28;20276;-68
2021/10/03 01:57:06;;;;;;;5.70;5.20;;;;;;;18.63;60.36;99555.03;5061727;28;20177;-68
2021/10/03 01:59:32;;;;;;;5.80;5.30;;;;;;;18.87;59.60;99547.84;5061483;28;21744;-69
2021/10/03 02:01:58;;;;;;;6.00;5.50;;;;;;;18.93;59.55;99557.28;5061638;28;20181;-68
2021/10/03 02:04:27;;;;;;;7.57;6.03;;;;;;;18.76;60.26;99536.91;5061455;28;20438;-68
2021/10/03 02:06:56;;;;;;;6.73;5.80;;;;;;;18.93;59.47;99552.00;5061476;28;20424;-70
2021/10/03 02:09:24;;;;;;;6.03;5.53;;;;;;;18.90;59.86;99539.81;5062358;28;20427;-69
2021/10/03 02:11:59;;;;;;;7.90;6.47;;;;;;;18.99;59.59;99538.56;5061327;28;20412;-69
2021/10/03 02:14:30;;;;;;;6.30;5.40;;;;;;;19.31;58.96;99533.63;5061458;28;20566;-70
2021/10/03 02:16:59;;;;;;;5.90;5.37;;;;;;;18.86;60.20;99564.59;5061558;28;20420;-68
2021/10/03 02:19:25;;;;;;;7.20;5.60;;;;;;;19.18;59.76;99523.56;5061140;28;20513;-68
2021/10/03 02:21:52;;;;;;;5.70;5.20;;;;;;;19.01;60.39;99515.56;5060901;28;20420;-69
2021/10/03 02:24:17;;;;;;;5.77;5.27;;;;;;;19.12;60.23;99515.94;5061260;28;20498;-68
2021/10/03 02:26:42;;;;;;;6.00;5.47;;;;;;;18.85;61.10;99510.94;5061580;28;20476;-68
2021/10/03 02:29:08;;;;;;;9.23;5.50;;;;;;;19.14;60.12;99510.59;5061159;28;20276;-69
2021/10/03 02:31:33;;;;;;;5.90;5.40;;;;;;;18.99;60.50;99515.63;5060751;28;20223;-68
2021/10/03 02:33:59;;;;;;;5.80;5.30;;;;;;;19.00;60.50;99511.22;5061713;28;20202;-69
2021/10/03 02:36:24;;;;;;;6.13;5.43;;;;;;;19.21;59.93;99527.03;5061436;28;20191;-70
2021/10/03 02:38:51;;;;;;;5.67;5.17;;;;;;;19.16;59.79;99520.16;5061013;28;20551;-68
2021/10/03 02:41:16;;;;;;;5.97;5.40;;;;;;;18.98;60.39;99511.28;5061032;28;20192;-68
2021/10/03 02:43:45;;;;;;;6.10;5.50;;;;;;;19.25;59.36;99512.75;5060980;28;20416;-68
2021/10/03 02:46:11;;;;;;;8.40;5.50;;;;;;;19.33;59.48;99510.59;5060869;28;20176;-69
2021/10/03 02:48:38;;;;;;;6.13;5.53;;;;;;;19.28;59.44;99517.88;5061030;28;20444;-68
2021/10/03 02:51:03;;;;;;;5.77;5.27;;;;;;;19.35;59.28;99522.81;5060604;28;20456;-68
2021/10/03 02:53:29;;;;;;;6.03;5.53;;;;;;;19.49;58.71;99508.94;5060491;28;20459;-68
2021/10/03 02:55:55;;;;;;;6.00;5.40;;;;;;;19.29;59.31;99516.94;5060011;28;20197;-69
2021/10/03 02:58:21;;;;;;;6.40;5.60;;;;;;;19.35;59.01;99527.25;5060746;28;20499;-68
2021/10/03 03:00:50;;;;;;;6.60;6.00;;;;;;;19.45;59.26;99525.88;5060449;28;20197;-69
2021/10/03 03:03:16;;;;;;;5.80;5.30;;;;;;;19.40;59.38;99514.66;5062020;28;20166;-69
2021/10/03 03:05:41;;;;;;;6.03;5.50;;;;;;;19.35;59.62;99524.63;5060508;28;20514;-69
2021/10/03 03:08:07;;;;;;;5.33;4.80;;;;;;;19.36;59.94;99526.31;5060788;28;20185;-68
2021/10/03 03:10:32;;;;;;;6.23;5.20;;;;;;;19.37;59.71;99521.91;5063438;28;20414;-69
2021/10/03 03:12:58;;;;;;;5.80;5.27;;;;;;;19.36;60.33;99526.31;5060193;28;20560;-68
2021/10/03 03:15:23;;;;;;;5.80;5.30;;;;;;;19.25;60.86;99532.09;5060309;28;20197;-68
2021/10/03 03:17:49;;;;;;;9.40;5.30;;;;;;;19.34;60.66;99521.09;5060749;28;20182;-68
2021/10/03 03:20:14;;;;;;;6.67;5.57;;;;;;;19.24;61.13;99530.38;5060036;28;20178;-68
2021/10/03 03:22:39;;;;;;;5.47;5.00;;;;;;;19.31;61.05;99531.81;5060116;28;20256;-68
2021/10/03 03:25:08;;;;;;;7.10;5.83;;;;;;;19.30;61.82;99522.16;5060696;28;20170;-68
2021/10/03 03:27:33;;;;;;;5.60;5.00;;;;;;;19.23;61.48;99533.06;5060131;28;20165;-69
2021/10/03 03:29:59;;;;;;;6.57;5.40;;;;;;;19.24;62.07;99535.69;5059731;28;20689;-68
2021/10/03 03:32:24;;;;;;;7.60;5.33;;;;;;;19.07;62.59;99528.50;5060464;28;20184;-68
2021/10/03 03:34:49;;;;;;;5.40;4.90;;;;;;;19.02;64.12;99534.00;5059928;28;20232;-68
2021/10/03 03:37:15;;;;;;;5.50;5.00;;;;;;;19.06;63.85;99539.13;5059945;28;20188;-68
2021/10/03 03:39:40;;;;;;;7.30;5.67;;;;;;;18.95;63.84;99535.19;5042864;28;20212;-68
2021/10/03 03:42:05;;;;;;;5.60;5.10;;;;;;;19.12;63.71;99559.97;5059629;28;20173;-68
2021/10/03 03:44:31;;;;;;;6.30;5.60;;;;;;;18.89;64.15;99534.59;5061685;28;20180;-69
2021/10/03 03:46:57;;;;;;;6.60;6.00;;;;;;;18.93;64.47;99531.75;5071087;28;20278;-70
2021/10/03 03:49:22;;;;;;;6.73;5.57;;;;;;;18.98;64.54;99521.88;5069552;28;20431;-68
2021/10/03 03:51:47;;;;;;;6.93;5.43;;;;;;;19.06;63.99;99529.41;5061793;28;20662;-68
2021/10/03 03:54:13;;;;;;;5.73;5.10;;;;;;;19.03;64.50;99521.66;5059977;28;20216;-68
2021/10/03 03:56:38;;;;;;;7.33;5.30;;;;;;;19.48;63.20;99531.03;5059522;28;20247;-68
2021/10/03 03:59:03;;;;;;;6.50;5.90;;;;;;;19.37;63.45;99532.47;5042161;28;20273;-68
2021/10/03 04:01:29;;;;;;;6.40;5.80;;;;;;;19.04;63.93;99528.66;5059515;28;20197;-70
2021/10/03 04:03:54;;;;;;;13.43;5.80;;;;;;;19.11;63.97;99530.06;5059307;28;20169;-68
2021/10/03 04:06:20;;;;;;;5.53;5.13;;;;;;;18.99;64.32;99520.06;5059257;28;20258;-68
2021/10/03 04:08:45;;;;;;;7.00;5.80;;;;;;;19.16;63.57;99530.72;5059646;28;20169;-69
2021/10/03 04:11:13;;;;;;;5.97;5.47;;;;;;;19.11;63.72;99527.44;5059028;28;20224;-68
2021/10/03 04:13:38;;;;;;;6.37;5.77;;;;;;;19.16;63.51;99520.16;5059022;28;20201;-69
2021/10/03 04:16:04;;;;;;;6.63;6.03;;;;;;;19.07;63.62;99512.66;5059478;28;20865;-69
2021/10/03 04:18:29;;;;;;;6.87;6.17;;;;;;;19.05;63.69;99533.00;5059246;28;20174;-68
2021/10/03 04:20:54;;;;;;;6.33;5.73;;;;;;;18.84;63.88;99540.91;5059203;28;20207;-68
2021/10/03 04:23:19;;;;;;;6.40;5.80;;;;;;;18.96;63.85;99543.97;5059677;28;20165;-69
2021/10/03 04:25:45;;;;;;;7.30;6.53;;;;;;;19.13;63.19;99541.44;5058911;28;20191;-68
2021/10/03 04:28:10;;;;;;;6.87;6.23;;;;;;;18.77;64.38;99534.19;5058904;28;20184;-68
2021/10/03 04:30:36;;;;;;;9.30;6.13;;;;;;;19.08;63.35;99537.28;5059428;28;20182;-68
2021/10/03 04:33:01;;;;;;;6.33;5.83;;;;;;;18.95;63.69;99545.75;5058896;28;20200;-68
2021/10/03 04:35:26;;;;;;;6.57;5.97;;;;;;;18.97;63.55;99538.63;5058732;28;20177;-68
2021/10/03 04:37:52;;;;;;;6.73;6.13;;;;;;;19.04;63.65;99544.50;5059193;28;20215;-68
2021/10/03 04:40:17;;;;;;;6.93;6.33;;;;;;;18.69;64.54;99541.59;5058542;28;20181;-69
2021/10/03 04:42:45;;;;;;;6.60;5.87;;;;;;;19.02;63.39;99533.13;5041182;28;20169;-69
2021/10/03 04:45:10;;;;;;;6.80;6.20;;;;;;;18.92;62.88;99542.41;5059020;28;20173;-69
2021/10/03 04:47:35;;;;;;;8.60;6.40;;;;;;;18.71;63.57;99550.28;5058877;28;20661;-70
2021/10/03 04:50:01;;;;;;;6.97;6.40;;;;;;;18.55;64.15;99539.53;5058453;28;20200;-68
2021/10/03 04:52:26;;;;;;;6.40;5.80;;;;;;;18.83;63.27;99541.84;5058449;28;20641;-69
2021/10/03 04:54:52;;;;;;;7.90;6.37;;;;;;;18.89;62.91;99530.19;5041103;28;20212;-68
2021/10/03 04:57:18;;;;;;;7.33;6.63;;;;;;;18.79;63.01;99527.03;5058676;28;20177;-69
2021/10/03 04:59:43;;;;;;;7.23;6.50;;;;;;;18.97;62.65;99533.34;5058149;28;20918;-68
2021/10/03 05:02:08;;;;;;;7.30;6.70;;;;;;;19.21;61.82;99537.59;5058242;28;20173;-68
2021/10/03 05:04:34;;;;;;;7.60;6.30;;;;;;;18.96;61.95;99536.91;5059337;28;20203;-68
2021/10/03 05:06:59;;;;;;;6.67;6.07;;;;;;;19.02;61.87;99523.44;5058408;28;20177;-68
2021/10/03 05:09:24;;;;;;;8.80;6.40;;;;;;;18.94;62.43;99528.22;5058313;28;20181;-69
2021/10/03 05:11:50;;;;;;;6.90;6.30;;;;;;;19.14;61.92;99524.66;5058455;28;20527;-69
2021/10/03 05:14:16;;;;;;;7.00;6.30;;;;;;;19.06;61.65;99534.69;5058182;28;20220;-68
2021/10/03 05:16:41;;;;;;;6.60;6.00;;;;;;;18.62;63.11;99533.06;5058539;28;20173;-69
2021/10/03 05:19:06;;;;;;;6.67;6.10;;;;;;;18.84;62.34;99529.50;5059586;28;20438;-68
2021/10/03 05:21:31;;;;;;;7.47;6.77;;;;;;;18.67;63.07;99543.41;5059949;28;20177;-69
2021/10/03 05:23:57;;;;;;;8.60;6.07;;;;;;;18.96;62.23;99551.91;5058279;28;20481;-70
2021/10/03 05:26:23;;;;;;;6.40;5.80;;;;;;;19.10;61.79;99536.28;5058556;28;20169;-68
2021/10/03 05:28:48;;;;;;;6.77;5.90;;;;;;;18.67;63.00;99546.94;5058032;28;20204;-68
2021/10/03 05:31:14;;;;;;;6.77;5.93;;;;;;;18.84;62.82;99538.25;5058233;28;20177;-68
2021/10/03 05:33:39;;;;;;;6.50;5.90;;;;;;;18.77;62.62;99541.25;5058887;28;20415;-69
2021/10/03 05:36:05;;;;;;;6.70;6.10;;;;;;;19.19;61.79;99533.22;5058155;28;20554;-68
2021/10/03 05:38:30;;;;;;;5.80;5.30;;;;;;;18.95;62.22;99523.78;5057827;28;20169;-69
2021/10/03 05:40:55;;;;;;;6.00;5.50;;;;;;;18.89;62.06;99538.13;5058743;28;20191;-68
2021/10/03 05:43:21;;;;;;;6.33;5.77;;;;;;;18.70;62.77;99538.03;5057991;28;20173;-68
2021/10/03 05:45:46;;;;;;;6.00;5.50;;;;;;;19.04;61.53;99528.66;5057970;28;20174;-68
2021/10/03 05:48:11;;;;;;;6.80;5.93;;;;;;;18.90;62.11;99528.41;5040980;28;20173;-68
2021/10/03 05:50:37;;;;;;;6.90;6.30;;;;;;;19.06;61.89;99523.28;5057581;28;20205;-68
2021/10/03 05:53:02;;;;;;;6.20;5.60;;;;;;;19.25;61.39;99524.16;5057614;28;20460;-68
2021/10/03 05:55:28;;;;;;;6.50;5.90;;;;;;;18.98;62.03;99531.53;5058433;28;20228;-68
2021/10/03 05:57:53;;;;;;;5.80;5.30;;;;;;;18.84;62.39;99535.63;5057972;28;20173;-69
2021/10/03 06:00:18;;;;;;;8.37;5.73;;;;;;;19.27;60.84;99532.03;5057499;28;20223;-69
2021/10/03 06:02:43;;;;;;;9.53;5.20;;;;;;;18.84;62.15;99535.63;5058404;28;20174;-68
2021/10/03 06:05:09;;;;;;;6.77;6.17;;;;;;;18.87;62.20;99526.72;5057517;28;20195;-71
2021/10/03 06:07:34;;;;;;;6.20;5.70;;;;;;;18.90;62.01;99526.59;5057524;28;20219;-69
2021/10/03 06:10:00;;;;;;;6.73;5.67;;;;;;;19.24;61.23;99529.50;5057858;28;20161;-68
2021/10/03 06:12:25;;;;;;;6.27;5.67;;;;;;;19.10;61.27;99530.16;5057701;28;20174;-69
2021/10/03 06:14:51;;;;;;;6.10;5.50;;;;;;;18.96;61.62;99554.53;5040408;28;20201;-70
2021/10/03 06:17:16;;;;;;;6.20;5.70;;;;;;;19.04;61.53;99520.72;5058150;28;20364;-68
2021/10/03 06:19:41;;;;;;;6.53;5.90;;;;;;;19.41;60.87;99540.16;5057710;28;20223;-69
2021/10/03 06:22:07;;;;;;;5.80;5.30;;;;;;;18.81;62.06;99530.50;5057521;28;20229;-68
2021/10/03 06:24:32;;;;;;;6.13;5.43;;;;;;;19.35;60.49;99529.91;5058408;28;20236;-69
2021/10/03 06:26:57;;;;;;;6.47;5.97;;;;;;;19.30;60.98;99535.38;5057717;28;20220;-69
2021/10/03 06:29:22;;;;;;;6.63;6.03;;;;;;;19.13;61.50;99538.81;5057398;28;20174;-69
2021/10/03 06:31:48;;;;;;;6.77;6.13;;;;;;;19.14;61.61;99539.66;5059910;28;20201;-69
2021/10/03 06:34:13;;;;;;;6.20;5.70;;;;;;;19.28;60.74;99537.25;5060891;28;20263;-69
2021/10/03 06:36:38;;;;;;;6.43;5.43;;;;;;;19.06;61.57;99539.97;5060851;28;20174;-68
2021/10/03 06:39:04;;;;;;;5.80;5.30;;;;;;;19.21;60.98;99537.59;5061412;28;20169;-69
2021/10/03 06:41:30;;;;;;;6.40;5.90;;;;;;;18.99;61.32;99551.75;5060738;28;20173;-69
2021/10/03 06:43:55;;;;;;;7.17;6.47;;;;;;;19.28;60.51;99549.59;5060779;28;20165;-69
2021/10/03 06:46:20;;;;;;;5.77;5.27;;;;;;;19.60;59.81;99548.09;5061125;28;20169;-69
2021/10/03 06:48:46;;;;;;;6.20;5.70;;;;;;;19.60;59.55;99552.53;5060833;28;20177;-69
2021/10/03 06:51:12;;;;;;;6.20;5.70;;;;;;;19.55;59.83;99549.25;5060451;28;20303;-69
2021/10/03 06:53:37;;;;;;;5.93;5.33;;;;;;;19.51;59.88;99559.97;5060961;28;20228;-68
2021/10/03 06:56:03;;;;;;;7.20;5.97;;;;;;;19.69;59.55;99549.47;5060617;28;20486;-68
2021/10/03 06:58:28;;;;;;;5.90;5.30;;;;;;;19.61;59.80;99547.16;5060607;28;20277;-69
2021/10/03 07:00:54;;;;;;;6.50;5.73;;;;;;;19.75;59.02;99549.16;5060808;28;20197;-68
2021/10/03 07:03:19;;;;;;;6.50;5.53;;;;;;;19.37;60.18;99559.75;5060286;28;20184;-68
2021/10/03 07:05:44;;;;;;;5.70;5.20;;;;;;;19.70;59.32;99545.91;5060341;28;20170;-68
2021/10/03 07:08:12;;;;;;;8.50;5.47;;;;;;;19.88;59.14;99553.88;5060829;28;20475;-68
2021/10/03 07:10:37;;;;;;;6.63;5.40;;;;;;;19.77;59.63;99557.00;5060292;28;20180;-69
2021/10/03 07:13:02;;;;;;;6.00;5.40;;;;;;;19.70;59.75;99559.13;5060170;28;20869;-69
2021/10/03 07:15:28;;;;;;;5.93;5.43;;;;;;;19.76;60.00;99558.81;5060737;28;20493;-69
2021/10/03 07:17:53;;;;;;;6.07;5.47;;;;;;;19.84;59.03;99561.13;5060200;28;20182;-69
2021/10/03 07:20:18;;;;;;;6.90;6.30;;;;;;;20.01;58.61;99562.94;5042678;28;20170;-68
2021/10/03 07:22:44;;;;;;;6.40;5.83;;;;;;;19.88;59.46;99559.19;5061245;28;20188;-68
2021/10/03 07:25:09;;;;;;;6.13;5.53;;;;;;;19.90;59.46;99560.81;5060085;28;20185;-69
2021/10/03 07:27:35;;;;;;;9.03;5.67;;;;;;;20.18;58.47;99583.31;5060055;28;20223;-69
2021/10/03 07:30:00;;;;;;;6.03;5.53;;;;;;;19.76;59.60;99572.03;5060262;28;20477;-67
2021/10/03 07:32:26;;;;;;;5.90;5.30;;;;;;;19.90;58.64;99568.75;5060681;28;20177;-69
2021/10/03 07:34:51;;;;;;;6.30;5.70;;;;;;;20.01;59.01;99571.75;5060372;28;20231;-68
2021/10/03 07:37:17;;;;;;;6.10;5.60;;;;;;;19.89;59.20;99574.13;5060368;28;20165;-68
2021/10/03 07:39:42;;;;;;;6.20;5.63;;;;;;;20.16;58.39;99585.16;5059716;28;20435;-69
2021/10/03 07:42:07;;;;;;;6.23;5.63;;;;;;;20.01;58.78;99581.47;5059083;28;20181;-68
2021/10/03 07:44:33;;;;;;;5.80;5.30;;;;;;;20.01;58.73;99594.69;5045162;28;20171;-69
2021/10/03 07:46:58;;;;;;;6.03;5.53;;;;;;;20.12;58.67;99589.75;5059542;28;20531;-69
2021/10/03 07:49:24;;;;;;;6.20;5.60;;;;;;;19.78;59.94;99591.34;5059655;28;20178;-68
2021/10/03 07:51:49;;;;;;;6.33;5.53;;;;;;;19.99;59.24;99599.22;5059056;28;20656;-69
2021/10/03 07:54:14;;;;;;;6.10;5.50;;;;;;;20.34;58.60;99594.84;5059323;28;20450;-68
2021/10/03 07:56:40;;;;;;;5.90;5.37;;;;;;;20.24;58.64;99606.84;5059822;28;20205;-70
2021/10/03 07:59:05;;;;;;;6.57;5.97;;;;;;;20.31;58.45;99604.72;5059174;28;20209;-69
2021/10/03 08:01:31;;;;;;;5.97;5.47;;;;;;;20.09;58.92;99594.34;5059702;28;20551;-69
2021/10/03 08:03:57;;;;;;;6.00;5.50;;;;;;;20.20;58.96;99597.31;5042390;28;20581;-68
2021/10/03 08:06:22;;;;;;;6.67;6.07;;;;;;;20.49;58.16;99597.69;5059226;28;20569;-69
2021/10/03 08:08:48;;;;;;;6.00;5.40;;;;;;;20.28;58.44;99592.53;5059196;28;20423;-69
2021/10/03 08:11:13;;;;;;;6.20;5.60;;;;;;;19.98;59.21;99608.91;5059366;28;20247;-69
2021/10/03 08:13:39;;;;;;;6.00;5.43;;;;;;;20.06;58.97;99591.84;5059050;28;20197;-70
2021/10/03 08:16:06;;;;;;;7.33;5.50;;;;;;;19.78;59.12;99599.28;5059044;28;20185;-69
2021/10/03 08:18:31;;;;;;;5.77;5.37;;;;;;;20.02;58.55;99585.84;5059392;28;20177;-71
2021/10/03 08:20:56;;;;;;;7.10;5.73;;;;;;;20.35;57.96;99588.63;5058749;28;20407;-69
2021/10/03 08:23:22;;;;;;;7.30;5.50;;;;;;;20.03;58.21;99587.56;5058864;28;20201;-69
2021/10/03 08:25:49;;;;;;;6.17;5.57;;;;;;;20.05;58.11;99598.06;5059373;28;20204;-69
2021/10/03 08:28:15;;;;;;;6.23;5.63;;;;;;;20.10;57.84;99594.25;5058688;28;20515;-70
2021/10/03 08:30:40;;;;;;;6.23;5.57;;;;;;;20.31;57.57;99591.47;5058429;28;20503;-69
2021/10/03 08:33:05;;;;;;;6.40;5.40;;;;;;;20.12;57.67;99584.47;5058914;28;20256;-70
2021/10/03 08:35:31;;;;;;;6.13;5.20;;;;;;;20.12;57.78;99578.31;5058623;28;20203;-70
2021/10/03 08:37:56;;;;;;;6.17;5.23;;;;;;;20.23;57.40;99583.94;5058457;28;20173;-69
2021/10/03 08:40:21;;;;;;;6.40;5.80;;;;;;;20.17;57.18;99587.75;5058870;28;20168;-70
2021/10/03 08:42:47;;;;;;;6.97;6.27;;;;;;;20.20;57.30;99586.72;5058519;28;20170;-70
2021/10/03 08:45:12;;;;;;;6.70;6.10;;;;;;;20.10;57.24;99574.88;5058433;28;20412;-69
2021/10/03 08:47:41;;;;;;;6.73;5.83;;;;;;;20.47;56.17;99579.22;5059054;28;20180;-68
2021/10/03 08:50:09;;;;;;;6.67;6.00;;;;;;;20.08;57.35;99577.63;5058188;28;20264;-69
2021/10/03 08:52:35;;;;;;;7.87;5.63;;;;;;;20.45;55.89;99581.09;5040709;28;20534;-68
2021/10/03 08:55:01;;;;;;;5.57;5.07;;;;;;;20.51;55.89;99580.78;5058037;28;20478;-69
2021/10/03 08:57:27;;;;;;;6.30;5.53;;;;;;;20.22;56.39;99589.31;5041092;28;20404;-69
2021/10/03 09:00:19;;;;;;;6.10;5.50;;;;;;;20.37;56.25;99588.56;5040695;28;20194;-70
2021/10/03 09:03:04;;;;;;;6.53;5.93;;;;;;;20.49;56.10;99595.88;5058374;28;20470;-69
2021/10/03 09:05:35;;;;;;;5.80;5.20;;;;;;;20.49;55.73;99593.22;5058544;28;20509;-69
2021/10/03 09:08:12;;;;;;;6.43;5.83;;;;;;;20.45;56.19;99596.97;5058091;28;20428;-69
2021/10/03 09:10:57;;;;;;;6.20;5.60;;;;;;;20.62;55.44;99596.13;5058084;28;20420;-69
2021/10/03 09:13:32;;;;;;;6.40;5.40;;;;;;;20.46;55.99;99608.44;5057964;28;20550;-69
2021/10/03 09:16:24;;;;;;;6.20;5.70;;;;;;;20.51;55.88;99598.44;5058010;28;20415;-68
2021/10/03 09:18:55;;;;;;;6.97;5.83;;;;;;;20.55;55.73;99612.41;5057848;28;20507;-68
2021/10/03 09:21:29;;;;;;;6.10;5.60;;;;;;;20.24;56.40;99606.84;5057841;28;20420;-68
2021/10/03 09:23:57;;;;;;;6.37;5.80;;;;;;;20.78;55.10;99609.50;5057857;28;20404;-68
2021/10/03 09:26:22;;;;;;;7.10;5.93;;;;;;;20.46;55.60;99601.34;5057821;28;20420;-69
2021/10/03 09:28:48;;;;;;;5.30;4.90;;;;;;;20.24;56.15;99609.50;5057685;28;20470;-69
2021/10/03 09:31:17;;;;;;;6.27;5.73;;;;;;;20.45;55.73;99609.34;5057765;28;20173;-68
2021/10/03 09:33:44;;;;;;;5.40;4.90;;;;;;;20.75;55.67;99609.63;5058214;28;20192;-70
2021/10/03 09:36:12;;;;;;;5.80;5.30;;;;;;;20.58;55.95;99617.53;5057845;28;20446;-68
2021/10/03 09:38:52;;;;;;;5.57;5.07;;;;;;;20.61;55.54;99620.06;5057812;28;20419;-68
2021/10/03 09:41:20;;;;;;;6.03;5.53;;;;;;;20.50;55.88;99608.19;5057968;28;20821;-68
2021/10/03 09:43:52;;;;;;;6.27;5.63;;;;;;;20.43;56.17;99630.63;5057764;28;20427;-69
2021/10/03 09:46:46;;;;;;;6.47;5.97;;;;;;;20.93;54.80;99625.53;5057724;28;20416;-70
2021/10/03 09:49:14;;;;;;;6.13;5.60;;;;;;;20.69;55.54;99623.19;5057595;28;20424;-69
2021/10/03 09:51:42;;;;;;;6.20;5.70;;;;;;;20.60;55.92;99631.56;5057375;28;20455;-68
2021/10/03 09:54:08;;;;;;;6.17;5.57;;;;;;;20.42;56.18;99623.59;5057691;28;20471;-68
2021/10/03 09:56:34;;;;;;;5.80;5.30;;;;;;;20.21;56.63;99640.53;5058309;28;20447;-68
2021/10/03 09:59:00;;;;;;;6.97;5.10;;;;;;;20.14;56.89;99639.97;5057537;28;20408;-68
2021/10/03 10:01:29;;;;;;;6.10;5.37;;;;;;;20.57;56.11;99635.22;5057389;28;20432;-68
2021/10/03 10:03:54;;;;;;;10.87;5.10;;;;;;;20.59;55.52;99632.50;5058086;28;20412;-69
2021/10/03 10:06:21;;;;;;;5.20;4.70;;;;;;;20.56;55.55;99644.09;5060983;28;20800;-69
2021/10/03 10:08:47;;;;;;;6.10;5.60;;;;;;;20.59;56.17;99653.69;5061461;28;20169;-70
2021/10/03 10:11:22;;;;;;;5.90;5.30;;;;;;;20.05;57.29;99635.94;5044215;28;20427;-68
2021/10/03 10:13:55;;;;;;;6.13;5.53;;;;;;;20.06;57.50;99642.97;5043806;28;20208;-69
2021/10/03 10:16:34;;;;;;;5.60;5.10;;;;;;;20.41;56.70;99632.47;5044256;28;20439;-69
2021/10/03 10:19:29;;;;;;;7.73;5.63;;;;;;;20.49;56.45;99640.03;5061385;28;20731;-70
2021/10/03 10:22:16;;;;;;;6.80;6.20;;;;;;;20.48;56.45;99639.16;5060942;28;20408;-68
2021/10/03 10:24:44;;;;;;;6.20;5.63;;;;;;;20.57;56.67;99635.22;5061097;28;20557;-68
2021/10/03 10:27:29;;;;;;;6.10;5.60;;;;;;;20.33;56.83;99638.13;5061180;28;20474;-69
2021/10/03 10:29:59;;;;;;;6.43;5.83;;;;;;;20.27;56.61;99641.09;5060763;28;20495;-68
2021/10/03 10:32:34;;;;;;;6.33;5.50;;;;;;;20.22;56.88;99637.78;5043671;28;20416;-68
2021/10/03 10:35:08;;;;;;;6.17;5.67;;;;;;;20.41;55.96;99626.31;5060631;28;20470;-68
2021/10/03 10:37:49;;;;;;;6.20;5.70;;;;;;;20.35;56.17;99627.50;5060774;28;20419;-68
2021/10/03 10:40:23;;;;;;;5.57;5.17;;;;;;;20.61;54.87;99620.06;5060849;28;20411;-68
2021/10/03 10:42:52;;;;;;;6.17;5.30;;;;;;;20.65;54.77;99630.41;5060798;28;20408;-69
2021/10/03 10:45:27;;;;;;;5.80;5.30;;;;;;;20.76;54.89;99627.25;5043533;28;20762;-68
2021/10/03 10:48:10;;;;;;;5.90;5.40;;;;;;;20.61;54.78;99635.94;5060853;28;20411;-69
2021/10/03 10:50:42;;;;;;;6.50;5.67;;;;;;;20.98;53.81;99631.44;5060579;28;20430;-68
2021/10/03 10:53:30;;;;;;;6.40;5.30;;;;;;;20.60;55.01;99634.22;5043566;28;20513;-69
2021/10/03 10:56:10;;;;;;;5.97;5.37;;;;;;;20.85;54.92;99639.16;5043463;28;20416;-69
2021/10/03 10:58:59;;;;;;;6.33;5.20;;;;;;;21.35;53.64;99632.16;5060547;28;20412;-69
2021/10/03 11:01:30;;;;;;;5.60;5.10;;;;;;;20.83;54.66;99633.94;5060367;28;20841;-68
2021/10/03 11:03:59;;;;;;;5.33;4.83;;;;;;;21.32;54.17;99627.03;5060429;28;20418;-69
2021/10/03 11:06:27;;;;;;;5.53;5.03;;;;;;;21.31;53.48;99650.03;5060281;28;20419;-69
2021/10/03 11:09:06;;;;;;;5.50;5.00;;;;;;;21.12;53.36;99633.38;5060528;28;20408;-69
2021/10/03 11:11:33;;;;;;;5.60;5.07;;;;;;;21.63;52.43;99628.06;5060124;28;20810;-69
2021/10/03 11:14:01;;;;;;;5.13;4.73;;;;;;;21.38;52.70;99634.66;5060413;28;20482;-68
2021/10/03 11:16:46;;;;;;;5.17;4.77;;;;;;;21.10;53.04;99625.50;5059253;28;20430;-68
2021/10/03 11:19:20;;;;;;;7.70;5.80;;;;;;;21.13;52.45;99635.09;5060895;28;20466;-68
2021/10/03 11:21:46;;;;;;;6.37;5.13;;;;;;;21.68;51.79;99628.69;5043406;28;20411;-68
2021/10/03 11:24:16;;;;;;;5.40;4.97;;;;;;;21.49;51.70;99626.16;5060115;28;20827;-68
2021/10/03 11:26:46;;;;;;;5.43;4.93;;;;;;;21.62;51.40;99629.00;5059799;28;20173;-68
2021/10/03 11:29:12;;;;;;;5.47;4.97;;;;;;;21.36;51.61;99640.06;5059918;28;20442;-68
2021/10/03 11:31:48;;;;;;;5.63;5.10;;;;;;;21.20;52.29;99632.06;5060714;28;20465;-68
2021/10/03 11:34:32;;;;;;;6.50;4.57;;;;;;;21.33;52.31;99624.28;5059890;28;20233;-69